Terminal Aerodrome Forecast
Issued by NWS

Home | Current Version | Previous Version | Text Only | Print | Product List | Glossary On
Versions: 1 2 3 4 5 6 7 8 9 10 11 12
000
FTUS44 KTSA 251737
TAFBVO
TAF
KBVO 251737Z 2518/2618 18011G18KT P6SM SCT050 SCT250
     FM260100 VRB04KT P6SM VCSH SCT040 BKN180
     FM260700 01006KT P6SM VCSH SCT015 BKN050 OVC100
      TEMPO 2610/2614 SCT008 BKN012
     FM261400 03006KT P6SM -RA SCT012 BKN035=

USA.gov is the U.S. government's official web portal to all federal, state and local government web resources and services.